Terminal Aerodrome Forecast
Issued by NWS North Platte, NE

Home | Current Version | Previous Version | Text Only | Print | Product List | Glossary On
Versions: 1 2 3 4 5 6 7 8 9 10 11 12 13 14 15 16 17 18 19 20 21 22 23 24 25 26 27 28 29 30 31
887
FTUS43 KLBF 261141
TAFLBF
TAF
KLBF 261141Z 2612/2712 VRB03KT P6SM OVC006
     FM261300 VRB03KT 5SM BR OVC005
      TEMPO 2613/2616 2SM BR OVC004
     FM261600 13004KT 6SM BR OVC006
     FM261700 14005KT P6SM BKN100
     FM262000 VRB04KT P6SM SCT060 OVC100
     FM270900 VRB03KT 4SM BR SCT100=

USA.gov is the U.S. government's official web portal to all federal, state and local government web resources and services.